Palma De Mallorca, Spain

2:37 PM CET on December 21, 2014 (GMT +0100)
Ciudad Jardin | Change Station
CLOSE
Current Station
Personal Weather Station
Location: Palma De Mallorca, ILLES BALEARS
Elevation: 20 ft
Nearby Weather Stations

Elev 20 ft 39.55 °N, 2.69 °E | Updated 1 second ago

Clear
Clear
61.5 °F
Feels Like 61.5 °F
N
5.8
Wind Variable Wind from SSW
Gusts 5.8 mph

Today
High -- | Low -- °F
--% Chance of Precip.
Yesterday
High -- | Low -- °F
Precip. -- in
8:05 AM 5:28 PM
Waning Crescent, 0% visible
Pressure 30.45 in
Visibility -9999.0 miles
Clouds
Dew Point 56 °F
Humidity 82%
Rainfall 0.00 in
Snow Depth Not available.
UV Not available.
Pollen Not available.
Air Quality Not available.
Flu Activity Not available.
METAR LEPA 211330Z 21009KT CAVOK 16/12 Q1031 NOSIG

More Conditions Fewer Conditions

Pressure 30.45 in
Visibility -9999.0 miles
Clouds
Dew Point 56 °F
Humidity 82%
Rainfall 0.00 in
Snow Depth Not available.
UV Not available.
Pollen Not available.
Air Quality Not available.
Flu Activity Not available.
METAR LEPA 211330Z 21009KT CAVOK 16/12 Q1031 NOSIG

More Conditions Fewer Conditions

10-Day Weather Forecast

Almanac

Astronomy

Dec. 21, 2014 Rise Set
Actual Time
Civil Twilight
Nautical Twilight
Astronomical Twilight
Moon
Length of Visible Light
Length of Day
Tomorrow will be .
, % of the Moon is Illuminated

Today's Extremes

Country Highs Country Lows

Community

WunderPhotos

Upload Photos

1,779,386 photos uploaded!

WunderBlogs® & News

Nearby

Air Quality

  Air Quality AQ Index Pollutant
Not available.

Snow Depth

Station Depth Elevation

Earthquake Activity

City Distance Mag. Time & Date
Minimum magnitude displayed is 2.5.

Coastal Water Temperatures

Place Temperature

Nearby Weather Stations